Terminal Aerodrome Forecast
Issued by NWS Sioux Falls, SD

Home | Current Version | Previous Version | Graphics & Text | Print | Product List | Glossary Off
Versions: 1 2 3 4 5 6 7 8 9 10 11 12 13 14 15

991
FTUS43 KFSD 161051 AAA
TAFHON
TAF AMD
KHON 161051Z 1611/1706 32005KT P6SM SCT020
     FM161500 VRB04KT P6SM SKC
     FM170100 13005KT P6SM SKC=

USA.gov is the U.S. government's official web portal to all federal, state and local government web resources and services.